createdAt,value
2018-11-22T12:15:57.515Z,9.80
2018-11-22T12:16:31.018Z,9.90
2018-11-22T12:17:04.478Z,9.90
2018-11-22T12:17:38.216Z,9.90
2018-11-22T12:18:11.803Z,10.00
2018-11-22T12:18:45.370Z,10.00
2018-11-22T12:19:59.478Z,10.00
2018-11-22T12:20:33.486Z,10.10
2018-11-22T12:21:06.992Z,10.10
2018-11-22T12:21:40.601Z,10.10
2018-11-22T12:22:14.176Z,10.10
2018-11-22T12:22:50.121Z,10.10
2018-11-22T12:23:23.780Z,10.10
2018-11-22T12:23:57.914Z,10.10
2018-11-22T12:24:31.427Z,10.20
2018-11-22T12:25:06.167Z,10.20
2018-11-22T12:25:39.656Z,10.20
2018-11-22T12:26:13.124Z,10.20
2018-11-22T12:26:46.609Z,10.20
2018-11-22T12:27:20.128Z,10.20
2018-11-22T12:27:56.137Z,10.30
2018-11-22T12:28:30.330Z,10.30
2018-11-22T12:29:03.795Z,10.30
2018-11-22T12:29:38.020Z,10.30
2018-11-22T12:30:16.581Z,10.30
2018-11-22T12:30:50.143Z,10.40
2018-11-22T12:31:24.151Z,10.40
2018-11-22T12:32:02.441Z,10.40
2018-11-22T12:32:40.285Z,10.30
2018-11-22T12:33:20.154Z,10.40
2018-11-22T12:33:58.973Z,10.40
2018-11-22T12:34:37.840Z,10.30
2018-11-22T12:35:12.434Z,10.30
2018-11-22T12:35:52.028Z,10.40
2018-11-22T12:36:29.847Z,10.40
2018-11-22T12:37:08.643Z,10.40
2018-11-22T12:37:45.245Z,10.40
2018-11-22T12:38:24.005Z,10.40
2018-11-22T12:38:58.038Z,10.40
2018-11-22T12:39:31.585Z,10.40
2018-11-22T12:40:08.080Z,10.40
2018-11-22T12:40:41.640Z,10.40
2018-11-22T12:41:15.735Z,10.50
2018-11-22T12:41:49.886Z,10.40
2018-11-22T12:42:23.472Z,10.50
2018-11-22T12:42:57.073Z,10.50
2018-11-22T12:43:31.297Z,10.50
2018-11-22T12:44:05.966Z,10.50
2018-11-22T12:44:39.512Z,10.50
2018-11-22T12:45:13.031Z,10.50
2018-11-22T12:45:46.547Z,10.50
2018-11-22T12:46:20.544Z,10.40
2018-11-22T12:46:54.040Z,10.40
2018-11-22T12:47:27.827Z,10.40
2018-11-22T12:48:01.560Z,10.40
2018-11-22T12:48:35.967Z,10.30
2018-11-22T12:49:10.347Z,10.30
2018-11-22T12:49:43.901Z,10.30
2018-11-22T12:50:17.445Z,10.20
2018-11-22T12:50:51.029Z,10.20
2018-11-22T12:51:24.547Z,10.20
2018-11-22T12:51:58.086Z,10.10
2018-11-22T12:52:31.655Z,10.10
2018-11-22T12:53:05.483Z,10.10
2018-11-22T12:53:39.032Z,10.10
2018-11-22T12:54:12.580Z,10.00
2018-11-22T12:54:46.711Z,10.00
2018-11-22T12:55:20.260Z,10.00
2018-11-22T12:55:53.757Z,10.00
2018-11-22T12:56:28.094Z,10.00
2018-11-22T12:57:01.683Z,10.00
2018-11-22T12:57:36.038Z,10.00
2018-11-22T12:58:09.601Z,10.00
2018-11-22T12:58:43.863Z,10.00
2018-11-22T12:59:17.530Z,10.10
2018-11-22T12:59:51.423Z,10.10
2018-11-22T13:00:24.988Z,10.10
2018-11-22T13:00:59.421Z,10.10
2018-11-22T13:01:32.981Z,10.10
2018-11-22T13:02:06.563Z,10.10
2018-11-22T13:02:42.396Z,10.10
2018-11-22T13:03:14.900Z,10.10
2018-11-22T13:03:48.478Z,10.10
2018-11-22T13:04:21.982Z,10.10
2018-11-22T13:04:55.460Z,10.10
2018-11-22T13:05:29.017Z,10.10
2018-11-22T13:06:02.623Z,10.10
2018-11-22T13:06:36.212Z,10.10
2018-11-22T13:07:10.416Z,10.10
2018-11-22T13:07:43.941Z,10.10
2018-11-22T13:08:17.501Z,10.00
2018-11-22T13:08:51.368Z,10.00
2018-11-22T13:09:25.463Z,10.00
2018-11-22T13:09:59.038Z,10.00
2018-11-22T13:10:33.236Z,10.00
2018-11-22T13:11:06.796Z,10.00
2018-11-22T13:11:40.285Z,10.00
2018-11-22T13:12:13.847Z,10.00
2018-11-22T13:12:48.320Z,10.00
2018-11-22T13:13:21.896Z,10.00
2018-11-22T13:13:55.449Z,10.00
2018-11-22T13:14:29.938Z,10.00
2018-11-22T13:15:03.462Z,10.00
2018-11-22T13:15:37.846Z,10.00
2018-11-22T13:16:11.432Z,10.00
2018-11-22T13:16:44.966Z,10.00
2018-11-22T13:17:18.568Z,9.90
2018-11-22T13:17:52.100Z,9.90
2018-11-22T13:18:25.690Z,9.90
2018-11-22T13:18:59.533Z,9.90
2018-11-22T13:19:33.934Z,9.90
2018-11-22T13:20:09.833Z,9.90
2018-11-22T13:20:43.356Z,9.90
2018-11-22T13:21:16.846Z,9.90
2018-11-22T13:21:50.360Z,9.90
2018-11-22T13:22:23.925Z,9.90
2018-11-22T13:22:59.408Z,9.90
2018-11-22T13:23:32.886Z,9.90
2018-11-22T13:24:06.908Z,9.90
2018-11-22T13:24:40.474Z,9.90
2018-11-22T13:25:15.474Z,9.90
2018-11-22T13:25:49.049Z,9.90
2018-11-22T13:26:22.534Z,9.90
2018-11-22T13:26:56.121Z,9.90
2018-11-22T13:27:29.780Z,9.90
2018-11-22T13:28:03.332Z,9.80
2018-11-22T13:28:36.849Z,9.80
2018-11-22T13:29:10.416Z,9.80
2018-11-22T13:29:43.859Z,9.80
2018-11-22T13:30:23.064Z,9.80
2018-11-22T13:30:57.179Z,9.80
2018-11-22T13:31:31.408Z,9.80
2018-11-22T13:32:06.089Z,9.80
2018-11-22T13:32:40.629Z,9.80
2018-11-22T13:33:14.136Z,9.80
2018-11-22T13:33:47.640Z,9.80
2018-11-22T13:34:21.247Z,9.80
2018-11-22T13:34:54.919Z,9.80
2018-11-22T13:35:28.423Z,9.80
2018-11-22T13:36:02.257Z,9.80
2018-11-22T13:36:36.084Z,9.80
2018-11-22T13:37:09.651Z,9.80
2018-11-22T13:37:44.421Z,9.80
2018-11-22T13:38:19.164Z,9.80
2018-11-22T13:38:52.775Z,9.80
2018-11-22T13:39:26.531Z,9.80
2018-11-22T13:40:00.048Z,9.80
2018-11-22T13:40:33.580Z,9.80
2018-11-22T13:41:07.101Z,9.80
2018-11-22T13:41:40.657Z,9.80
2018-11-22T13:42:15.075Z,9.80
2018-11-22T13:42:49.557Z,9.70
2018-11-22T13:43:23.043Z,9.70
2018-11-22T13:43:56.577Z,9.70
2018-11-22T13:44:30.831Z,9.70
2018-11-22T13:45:09.142Z,9.70
2018-11-22T13:45:42.677Z,9.70
2018-11-22T13:46:16.334Z,9.60
2018-11-22T13:46:50.580Z,9.60
2018-11-22T13:47:24.081Z,9.70
2018-11-22T13:47:58.234Z,9.70
2018-11-22T13:48:31.851Z,9.70
2018-11-22T13:49:05.884Z,9.70
2018-11-22T13:49:40.140Z,9.70
2018-11-22T13:50:18.286Z,9.70
2018-11-22T13:50:51.792Z,9.70
2018-11-22T13:51:25.245Z,9.70
2018-11-22T13:51:58.773Z,9.70
2018-11-22T13:52:37.172Z,9.70
2018-11-22T13:53:07.312Z,9.70
2018-11-22T13:53:40.933Z,9.70
2018-11-22T13:54:14.560Z,9.70
2018-11-22T13:54:48.088Z,9.70
2018-11-22T13:55:22.181Z,9.70
2018-11-22T13:55:55.716Z,9.60
2018-11-22T13:56:29.285Z,9.60
2018-11-22T13:57:02.887Z,9.60
2018-11-22T13:57:36.974Z,9.60
2018-11-22T13:58:11.120Z,9.60
2018-11-22T13:58:44.659Z,9.60
2018-11-22T13:59:18.112Z,9.50
2018-11-22T13:59:52.217Z,9.50
2018-11-22T14:00:28.141Z,9.50
2018-11-22T14:01:01.688Z,9.50
2018-11-22T14:01:35.339Z,9.50
2018-11-22T14:02:09.511Z,9.50
2018-11-22T14:02:43.209Z,9.50
2018-11-22T14:03:16.732Z,9.50
2018-11-22T14:03:50.271Z,9.50
2018-11-22T14:04:23.803Z,9.50
2018-11-22T14:04:57.458Z,9.50
2018-11-22T14:05:31.046Z,9.50
2018-11-22T14:06:04.640Z,9.50
2018-11-22T14:06:38.367Z,9.50
2018-11-22T14:07:12.042Z,9.50
2018-11-22T14:07:45.646Z,9.50
2018-11-22T14:08:19.150Z,9.50
2018-11-22T14:08:52.780Z,9.50
2018-11-22T14:09:26.285Z,9.60
2018-11-22T14:09:59.814Z,9.60
2018-11-22T14:10:33.430Z,9.60
2018-11-22T14:11:13.637Z,9.60
2018-11-22T14:11:40.554Z,9.60
2018-11-22T14:12:14.041Z,9.60
2018-11-22T14:12:47.721Z,9.70
2018-11-22T14:13:21.253Z,9.70
2018-11-22T14:13:54.776Z,9.70
2018-11-22T14:14:28.289Z,9.70
2018-11-22T14:15:01.817Z,9.70
2018-11-22T14:15:35.906Z,9.60
2018-11-22T14:16:09.413Z,9.60
2018-11-22T14:16:42.976Z,9.60
2018-11-22T14:17:16.962Z,9.60
2018-11-22T14:17:51.708Z,9.60
2018-11-22T14:18:25.314Z,9.60
2018-11-22T14:18:58.892Z,9.60
2018-11-22T14:19:32.496Z,9.60
2018-11-22T14:20:08.469Z,9.60
2018-11-22T14:20:42.084Z,9.60
2018-11-22T14:21:16.339Z,9.70
2018-11-22T14:21:49.815Z,9.70
2018-11-22T14:22:23.406Z,9.70
2018-11-22T14:22:57.845Z,9.70
2018-11-22T14:23:31.399Z,9.70
2018-11-22T14:24:04.910Z,9.70
2018-11-22T14:24:38.609Z,9.70
2018-11-22T14:25:13.152Z,9.80
2018-11-22T14:25:49.119Z,9.80
2018-11-22T14:26:20.148Z,9.80
2018-11-22T14:26:53.639Z,9.80
2018-11-22T14:27:27.964Z,9.80
2018-11-22T14:28:01.552Z,9.80
2018-11-22T14:28:35.112Z,9.80
2018-11-22T14:29:09.139Z,9.90
2018-11-22T14:29:43.183Z,9.90
2018-11-22T14:30:19.650Z,9.90
2018-11-22T14:30:53.599Z,9.90
2018-11-22T14:31:27.320Z,9.90
2018-11-22T14:32:00.864Z,9.90
2018-11-22T14:32:34.893Z,9.90
2018-11-22T14:33:08.451Z,9.90
2018-11-22T14:33:42.708Z,9.90
2018-11-22T14:34:16.181Z,9.90
2018-11-22T14:34:49.776Z,9.90
2018-11-22T14:35:24.350Z,9.90
2018-11-22T14:35:58.018Z,9.90
2018-11-22T14:36:32.340Z,9.80
2018-11-22T14:37:05.824Z,9.90
2018-11-22T14:37:39.402Z,9.80
2018-11-22T14:38:12.880Z,9.80
2018-11-22T14:38:46.331Z,9.80
2018-11-22T14:39:19.795Z,9.80
2018-11-22T14:39:53.358Z,9.80
2018-11-22T14:40:28.381Z,9.80
2018-11-22T14:41:02.440Z,9.90
2018-11-22T14:41:35.954Z,9.80
2018-11-22T14:42:10.165Z,9.90
2018-11-22T14:42:46.350Z,9.80
2018-11-22T14:43:19.906Z,9.80
2018-11-22T14:43:53.398Z,9.80
2018-11-22T14:44:26.867Z,9.80
2018-11-22T14:45:01.141Z,9.80
2018-11-22T14:45:34.630Z,9.80
2018-11-22T14:46:08.731Z,9.80
2018-11-22T14:46:42.491Z,9.70
2018-11-22T14:47:16.370Z,9.70
2018-11-22T14:47:50.779Z,9.70
2018-11-22T14:48:24.252Z,9.70
2018-11-22T14:48:58.556Z,9.70
2018-11-22T14:49:32.592Z,9.60
2018-11-22T14:50:10.177Z,9.60
2018-11-22T14:50:55.102Z,9.60
2018-11-22T14:51:34.177Z,9.60
2018-11-22T14:52:07.929Z,9.60
2018-11-22T14:52:43.239Z,9.60
2018-11-22T14:53:19.251Z,9.60
2018-11-22T14:53:52.972Z,9.60
2018-11-22T14:54:26.488Z,9.50
2018-11-22T14:55:02.007Z,9.50
2018-11-22T14:55:35.659Z,9.50
2018-11-22T14:56:09.144Z,9.50
2018-11-22T14:56:42.726Z,9.50
2018-11-22T14:57:16.249Z,9.50
2018-11-22T14:57:49.727Z,9.50
2018-11-22T14:58:23.241Z,9.50
2018-11-22T14:58:56.709Z,9.50
2018-11-22T14:59:32.456Z,9.50
2018-11-22T15:00:10.229Z,9.50
2018-11-22T15:00:44.382Z,9.50
2018-11-22T15:01:18.658Z,9.40
2018-11-22T15:01:53.148Z,9.40
2018-11-22T15:02:26.702Z,9.40
2018-11-22T15:03:01.449Z,9.40
2018-11-22T15:03:35.653Z,9.40
2018-11-22T15:04:09.196Z,9.40
2018-11-22T15:04:42.948Z,9.40
2018-11-22T15:05:17.154Z,9.30
2018-11-22T15:05:50.659Z,9.30
2018-11-22T15:06:24.874Z,9.30
2018-11-22T15:06:59.142Z,9.30
2018-11-22T15:07:32.799Z,9.30
2018-11-22T15:08:06.770Z,9.30
2018-11-22T15:08:40.279Z,9.20
2018-11-22T15:09:14.107Z,9.20
2018-11-22T15:09:47.347Z,9.20
2018-11-22T15:10:21.522Z,9.20
2018-11-22T15:10:55.005Z,9.20
2018-11-22T15:11:28.742Z,9.10
2018-11-22T15:12:02.346Z,9.10
2018-11-22T15:12:36.935Z,9.10
2018-11-22T15:13:10.434Z,9.10
2018-11-22T15:13:44.503Z,9.00
2018-11-22T15:14:18.639Z,9.10
2018-11-22T15:14:52.234Z,9.10
2018-11-22T15:15:26.988Z,9.00
2018-11-22T15:16:00.275Z,9.00
2018-11-22T15:16:33.780Z,9.00
2018-11-22T15:17:07.265Z,9.00
2018-11-22T15:17:41.256Z,9.00
2018-11-22T15:18:14.731Z,9.00
2018-11-22T15:18:48.213Z,9.00
2018-11-22T15:19:21.730Z,9.00
2018-11-22T15:19:55.282Z,9.00
2018-11-22T15:20:28.926Z,9.00
2018-11-22T15:21:03.037Z,9.00
2018-11-22T15:21:36.996Z,9.00
2018-11-22T15:22:10.530Z,9.00
2018-11-22T15:22:45.033Z,9.00
2018-11-22T15:23:18.558Z,9.00
2018-11-22T15:23:52.065Z,8.90
2018-11-22T15:24:25.656Z,9.00
2018-11-22T15:24:59.164Z,9.00
2018-11-22T15:25:32.751Z,8.90
2018-11-22T15:26:06.888Z,8.90
2018-11-22T15:26:40.562Z,8.90
2018-11-22T15:27:14.036Z,8.90
2018-11-22T15:27:48.361Z,8.90
2018-11-22T15:28:21.871Z,8.90
2018-11-22T15:28:55.733Z,8.90
2018-11-22T15:29:29.214Z,8.90
2018-11-22T15:30:03.009Z,8.90
2018-11-22T15:30:36.516Z,8.90
2018-11-22T15:31:10.023Z,8.90
2018-11-22T15:31:43.514Z,8.90
2018-11-22T15:32:17.017Z,8.90
2018-11-22T15:32:51.331Z,8.90
2018-11-22T15:33:25.477Z,8.80
2018-11-22T15:33:58.996Z,8.80
2018-11-22T15:34:32.569Z,8.80
2018-11-22T15:35:08.443Z,8.80
2018-11-22T15:35:42.038Z,8.80
2018-11-22T15:36:15.557Z,8.80
2018-11-22T15:36:49.014Z,8.80
2018-11-22T15:37:22.547Z,8.80
2018-11-22T15:37:56.115Z,8.80
2018-11-22T15:38:30.444Z,8.80
2018-11-22T15:39:04.608Z,8.80
2018-11-22T15:39:38.249Z,8.70
2018-11-22T15:40:15.008Z,8.80
2018-11-22T15:40:48.627Z,8.70
2018-11-22T15:41:23.159Z,8.70
2018-11-22T15:41:56.655Z,8.70
2018-11-22T15:42:30.164Z,8.70
2018-11-22T15:43:04.291Z,8.70
2018-11-22T15:43:37.763Z,8.70
2018-11-22T15:44:11.298Z,8.70
2018-11-22T15:44:44.877Z,8.70
2018-11-22T15:45:20.781Z,8.70
2018-11-22T15:45:55.116Z,8.70
2018-11-22T15:46:28.708Z,8.70
2018-11-22T15:47:02.232Z,8.70
2018-11-22T15:47:35.857Z,8.70
2018-11-22T15:48:11.376Z,8.60
2018-11-22T15:48:44.867Z,8.70
2018-11-22T15:49:19.409Z,8.60
2018-11-22T15:49:53.268Z,8.60
2018-11-22T15:50:28.148Z,8.60
2018-11-22T15:51:01.969Z,8.60
2018-11-22T15:51:35.842Z,8.60
2018-11-22T15:52:09.871Z,8.60
2018-11-22T15:52:44.169Z,8.60
2018-11-22T15:53:17.826Z,8.60
2018-11-22T15:53:51.452Z,8.60
2018-11-22T15:54:26.313Z,8.50
2018-11-22T15:54:59.815Z,8.50
2018-11-22T15:55:34.901Z,8.60
2018-11-22T15:56:08.485Z,8.50
2018-11-22T15:56:42.102Z,8.50
2018-11-22T15:57:17.683Z,8.50
2018-11-22T15:57:54.465Z,8.50
2018-11-22T15:58:27.949Z,8.50
2018-11-22T15:59:01.449Z,8.50
2018-11-22T15:59:34.956Z,8.40
2018-11-22T16:00:12.280Z,8.50
2018-11-22T16:00:46.086Z,8.40
2018-11-22T16:01:20.705Z,8.40
2018-11-22T16:01:54.224Z,8.40
2018-11-22T16:02:28.899Z,8.40
2018-11-22T16:03:03.198Z,8.40
2018-11-22T16:03:36.705Z,8.40
2018-11-22T16:04:10.196Z,8.40
2018-11-22T16:04:44.386Z,8.40
2018-11-22T16:05:18.418Z,8.40
2018-11-22T16:05:51.973Z,8.40
2018-11-22T16:06:25.462Z,8.40
2018-11-22T16:06:59.847Z,8.40
2018-11-22T16:07:33.369Z,8.40
2018-11-22T16:08:06.857Z,8.40
2018-11-22T16:08:40.995Z,8.40
2018-11-22T16:09:14.517Z,8.40
2018-11-22T16:09:48.116Z,8.30
2018-11-22T16:10:26.962Z,8.30
2018-11-22T16:10:59.573Z,8.30
2018-11-22T16:11:33.130Z,8.30
2018-11-22T16:12:07.192Z,8.30
2018-11-22T16:12:40.942Z,8.30
2018-11-22T16:13:14.603Z,8.30
2018-11-22T16:13:48.314Z,8.30
2018-11-22T16:14:21.869Z,8.30
2018-11-22T16:14:55.370Z,8.30
2018-11-22T16:15:37.612Z,8.20
2018-11-22T16:16:11.152Z,8.20
2018-11-22T16:16:44.695Z,8.20
2018-11-22T16:17:18.197Z,8.20
2018-11-22T16:17:51.737Z,8.20
2018-11-22T16:18:25.295Z,8.20
2018-11-22T16:18:58.777Z,8.20
2018-11-22T16:19:32.338Z,8.20
2018-11-22T16:20:06.824Z,8.20
2018-11-22T16:20:40.367Z,8.20
2018-11-22T16:21:13.855Z,8.10
2018-11-22T16:21:47.303Z,8.20
2018-11-22T16:22:20.768Z,8.20
2018-11-22T16:22:54.270Z,8.20
2018-11-22T16:23:28.858Z,8.10
2018-11-22T16:24:03.035Z,8.10
2018-11-22T16:24:36.528Z,8.10
2018-11-22T16:25:11.545Z,8.10
2018-11-22T16:25:45.083Z,8.10
2018-11-22T16:26:19.162Z,8.10
2018-11-22T16:26:52.721Z,8.10
2018-11-22T16:27:26.330Z,8.10
2018-11-22T16:28:00.673Z,8.10
2018-11-22T16:28:34.232Z,8.10
2018-11-22T16:29:08.294Z,8.10
2018-11-22T16:29:41.805Z,8.10
2018-11-22T16:30:16.957Z,8.10
2018-11-22T16:30:51.051Z,8.10
2018-11-22T16:31:24.558Z,8.10
2018-11-22T16:31:58.989Z,8.10
2018-11-22T16:32:32.501Z,8.10
2018-11-22T16:33:06.224Z,8.10
2018-11-22T16:33:39.819Z,8.00
2018-11-22T16:34:13.330Z,8.00
2018-11-22T16:34:47.301Z,8.00
2018-11-22T16:35:21.918Z,8.00
2018-11-22T16:35:55.451Z,8.00
2018-11-22T16:36:28.951Z,8.00
2018-11-22T16:37:02.446Z,8.00
2018-11-22T16:37:36.045Z,8.00
2018-11-22T16:38:09.587Z,8.00
2018-11-22T16:38:43.181Z,7.90
2018-11-22T16:39:17.137Z,7.90
2018-11-22T16:39:54.234Z,7.90
2018-11-22T16:40:26.094Z,7.90
2018-11-22T16:40:59.561Z,7.90
2018-11-22T16:41:33.555Z,7.90
2018-11-22T16:42:07.083Z,7.90
2018-11-22T16:42:42.287Z,7.90
2018-11-22T16:43:16.078Z,7.90
2018-11-22T16:43:50.289Z,7.90
2018-11-22T16:44:23.826Z,7.90
2018-11-22T16:44:57.364Z,7.90
2018-11-22T16:45:32.377Z,7.90
2018-11-22T16:46:06.354Z,7.90
2018-11-22T16:46:39.825Z,7.90
2018-11-22T16:47:13.265Z,7.90
2018-11-22T16:47:46.838Z,7.90
2018-11-22T16:48:21.408Z,7.90
2018-11-22T16:48:54.892Z,7.90
2018-11-22T16:49:28.622Z,7.90
2018-11-22T16:50:02.235Z,7.90
2018-11-22T16:50:36.868Z,7.90
2018-11-22T16:51:10.931Z,7.90
2018-11-22T16:51:45.453Z,7.90
2018-11-22T16:52:18.947Z,7.90
2018-11-22T16:52:52.713Z,7.90
2018-11-22T16:53:26.240Z,7.90
2018-11-22T16:54:00.371Z,7.80
2018-11-22T16:54:34.027Z,7.90
2018-11-22T16:55:08.058Z,7.90
2018-11-22T16:55:42.158Z,7.80
2018-11-22T16:56:15.831Z,7.90
2018-11-22T16:56:50.251Z,7.80
2018-11-22T16:57:23.725Z,7.80
2018-11-22T16:57:58.628Z,7.80
2018-11-22T16:58:32.161Z,7.80
2018-11-22T16:59:06.024Z,7.80
2018-11-22T16:59:40.109Z,7.80
2018-11-22T17:00:17.236Z,7.80
2018-11-22T17:00:50.941Z,7.80
2018-11-22T17:01:27.796Z,7.80
2018-11-22T17:01:58.036Z,7.80
2018-11-22T17:02:31.599Z,7.80
2018-11-22T17:03:08.005Z,7.80
2018-11-22T17:03:42.019Z,7.80
2018-11-22T17:04:16.177Z,7.80
2018-11-22T17:04:49.626Z,7.80
2018-11-22T17:05:23.427Z,7.80
2018-11-22T17:05:56.964Z,7.80
2018-11-22T17:06:30.534Z,7.80
2018-11-22T17:07:04.091Z,7.80
2018-11-22T17:07:38.360Z,7.80
2018-11-22T17:08:12.662Z,7.80
2018-11-22T17:08:47.150Z,7.80
2018-11-22T17:09:20.732Z,7.80
2018-11-22T17:09:54.253Z,7.80
2018-11-22T17:10:28.825Z,7.80
2018-11-22T17:11:03.141Z,7.80
2018-11-22T17:11:37.065Z,7.70
2018-11-22T17:12:10.635Z,7.70
2018-11-22T17:12:45.009Z,7.70
2018-11-22T17:13:19.238Z,7.70
2018-11-22T17:13:53.125Z,7.70
2018-11-22T17:14:26.758Z,7.70
2018-11-22T17:15:00.229Z,7.70
2018-11-22T17:15:35.730Z,7.70
2018-11-22T17:16:09.242Z,7.70
2018-11-22T17:16:42.837Z,7.70
2018-11-22T17:17:16.303Z,7.70
2018-11-22T17:17:50.348Z,7.60
2018-11-22T17:18:23.877Z,7.60
2018-11-22T17:18:57.435Z,7.60
2018-11-22T17:19:31.384Z,7.60
2018-11-22T17:20:05.721Z,7.60
2018-11-22T17:20:39.278Z,7.60
2018-11-22T17:21:12.825Z,7.60
2018-11-22T17:21:46.315Z,7.60
2018-11-22T17:22:19.854Z,7.60
2018-11-22T17:22:54.297Z,7.60
2018-11-22T17:23:28.226Z,7.60
2018-11-22T17:24:01.763Z,7.60
2018-11-22T17:24:35.346Z,7.60
2018-11-22T17:25:12.135Z,7.60
2018-11-22T17:25:45.656Z,7.60
2018-11-22T17:26:19.311Z,7.60
2018-11-22T17:26:53.646Z,7.60
2018-11-22T17:27:27.205Z,7.60
2018-11-22T17:28:02.098Z,7.60
2018-11-22T17:28:35.616Z,7.60
2018-11-22T17:29:09.160Z,7.50
2018-11-22T17:29:43.024Z,7.50
2018-11-22T17:30:18.723Z,7.60
2018-11-22T17:30:52.536Z,7.60
2018-11-22T17:31:26.078Z,7.50
2018-11-22T17:31:59.582Z,7.50
2018-11-22T17:32:33.265Z,7.50
2018-11-22T17:33:07.009Z,7.50
2018-11-22T17:33:42.349Z,7.50
2018-11-22T17:34:15.883Z,7.50
2018-11-22T17:34:50.739Z,7.50
2018-11-22T17:35:24.914Z,7.50
2018-11-22T17:36:00.273Z,7.50
2018-11-22T17:36:34.398Z,7.40
2018-11-22T17:37:07.909Z,7.40
2018-11-22T17:37:42.072Z,7.50
2018-11-22T17:38:15.608Z,7.40
2018-11-22T17:38:49.071Z,7.40
2018-11-22T17:39:23.638Z,7.50
2018-11-22T17:39:58.053Z,7.40
2018-11-22T17:40:36.188Z,7.40
2018-11-22T17:41:09.675Z,7.40
2018-11-22T17:41:43.607Z,7.40
2018-11-22T17:42:17.052Z,7.40
2018-11-22T17:42:51.278Z,7.40
2018-11-22T17:43:25.717Z,7.40
2018-11-22T17:44:00.249Z,7.40
2018-11-22T17:44:33.749Z,7.40
2018-11-22T17:45:11.682Z,7.40
2018-11-22T17:45:46.691Z,7.40
2018-11-22T17:46:20.175Z,7.40
2018-11-22T17:46:54.048Z,7.40
2018-11-22T17:47:27.875Z,7.30
2018-11-22T17:48:01.786Z,7.40
2018-11-22T17:48:35.261Z,7.30
2018-11-22T17:49:08.988Z,7.30
2018-11-22T17:49:42.542Z,7.40
2018-11-22T17:50:16.639Z,7.30
2018-11-22T17:50:50.454Z,7.30
2018-11-22T17:51:23.999Z,7.30
2018-11-22T17:51:58.018Z,7.30
2018-11-22T17:52:32.173Z,7.30
2018-11-22T17:53:07.388Z,7.30
2018-11-22T17:53:40.947Z,7.30
2018-11-22T17:54:14.574Z,7.30
2018-11-22T17:54:49.560Z,7.30
2018-11-22T17:55:24.352Z,7.30
2018-11-22T17:55:58.408Z,7.30
2018-11-22T17:56:31.890Z,7.30
2018-11-22T17:57:06.703Z,7.30
2018-11-22T17:57:41.069Z,7.30
2018-11-22T17:58:15.263Z,7.30
2018-11-22T17:58:50.161Z,7.30
2018-11-22T17:59:24.387Z,7.30
2018-11-22T17:59:57.943Z,7.30
2018-11-22T18:00:34.905Z,7.30
2018-11-22T18:01:14.542Z,7.20
2018-11-22T18:01:43.313Z,7.20
2018-11-22T18:02:16.835Z,7.20
2018-11-22T18:02:52.175Z,7.20
2018-11-22T18:03:25.680Z,7.20
2018-11-22T18:03:59.136Z,7.20
2018-11-22T18:04:32.736Z,7.20
2018-11-22T18:05:07.399Z,7.20
2018-11-22T18:05:40.979Z,7.20
2018-11-22T18:06:14.455Z,7.20
2018-11-22T18:06:47.905Z,7.20
2018-11-22T18:07:21.429Z,7.20
2018-11-22T18:07:55.712Z,7.20
2018-11-22T18:08:29.240Z,7.20
2018-11-22T18:09:03.020Z,7.20
2018-11-22T18:09:36.487Z,7.20
2018-11-22T18:10:14.313Z,7.10
2018-11-22T18:10:47.864Z,7.10
2018-11-22T18:11:21.597Z,7.10
2018-11-22T18:11:55.135Z,7.10
2018-11-22T18:12:30.035Z,7.10
2018-11-22T18:13:03.533Z,7.10
2018-11-22T18:13:36.961Z,7.10
2018-11-22T18:14:10.824Z,7.10
2018-11-22T18:14:44.377Z,7.10
2018-11-22T18:15:19.077Z,7.10
2018-11-22T18:15:55.813Z,7.10
2018-11-22T18:16:29.255Z,7.10
2018-11-22T18:17:02.780Z,7.10
2018-11-22T18:17:37.289Z,7.00
2018-11-22T18:18:10.823Z,7.00
2018-11-22T18:18:44.292Z,7.10
2018-11-22T18:19:17.760Z,7.00
2018-11-22T18:19:51.301Z,7.00
2018-11-22T18:20:28.125Z,7.10
2018-11-22T18:21:02.897Z,7.00
2018-11-22T18:21:38.127Z,7.00
2018-11-22T18:22:11.660Z,7.00
2018-11-22T18:22:46.037Z,7.00
2018-11-22T18:23:19.649Z,7.00
2018-11-22T18:23:53.681Z,7.00
2018-11-22T18:24:27.166Z,7.00
2018-11-22T18:25:00.710Z,7.00
2018-11-22T18:25:34.525Z,7.00
2018-11-22T18:26:08.741Z,7.00
2018-11-22T18:26:42.264Z,7.00
2018-11-22T18:27:15.824Z,7.00
2018-11-22T18:27:50.051Z,7.00
2018-11-22T18:28:24.207Z,7.00
2018-11-22T18:28:58.039Z,7.00
2018-11-22T18:29:31.802Z,7.00
2018-11-22T18:30:08.741Z,7.00
2018-11-22T18:30:42.896Z,7.00
2018-11-22T18:31:16.443Z,6.90
2018-11-22T18:31:50.006Z,6.90
2018-11-22T18:32:23.527Z,6.90
2018-11-22T18:32:59.401Z,6.90
2018-11-22T18:33:32.918Z,6.90
2018-11-22T18:34:06.461Z,6.90
2018-11-22T18:34:39.995Z,6.90
2018-11-22T18:35:14.044Z,6.90
2018-11-22T18:35:47.891Z,6.90
2018-11-22T18:36:23.093Z,6.90
2018-11-22T18:36:56.680Z,6.90
2018-11-22T18:37:31.306Z,6.90
2018-11-22T18:38:06.640Z,6.80
2018-11-22T18:38:40.164Z,6.80
2018-11-22T18:39:14.370Z,6.80
2018-11-22T18:39:48.183Z,6.80
2018-11-22T18:40:23.032Z,6.80
2018-11-22T18:40:56.662Z,6.80
2018-11-22T18:41:30.844Z,6.80
2018-11-22T18:42:05.168Z,6.80
2018-11-22T18:42:38.741Z,6.80
2018-11-22T18:43:12.267Z,6.80
2018-11-22T18:43:46.587Z,6.80
2018-11-22T18:44:20.030Z,6.80
2018-11-22T18:44:54.885Z,6.80
2018-11-22T18:45:32.115Z,6.80
2018-11-22T18:46:05.802Z,6.80
2018-11-22T18:46:39.361Z,6.80
2018-11-22T18:47:12.836Z,6.80
2018-11-22T18:47:46.600Z,6.70
2018-11-22T18:48:20.827Z,6.70
2018-11-22T18:48:54.473Z,6.80
2018-11-22T18:49:27.980Z,6.70
2018-11-22T18:50:01.473Z,6.70
2018-11-22T18:50:35.700Z,6.80
2018-11-22T18:51:09.222Z,6.80
2018-11-22T18:51:42.710Z,6.70
2018-11-22T18:52:16.220Z,6.70
2018-11-22T18:52:50.054Z,6.70
2018-11-22T18:53:24.063Z,6.70
2018-11-22T18:53:58.099Z,6.70
2018-11-22T18:54:31.656Z,6.70
2018-11-22T18:55:06.425Z,6.70
2018-11-22T18:55:40.777Z,6.70
2018-11-22T18:56:14.435Z,6.70
2018-11-22T18:56:47.920Z,6.60
2018-11-22T18:57:22.143Z,6.60
2018-11-22T18:57:55.746Z,6.60
2018-11-22T18:58:29.295Z,6.60
2018-11-22T18:59:02.853Z,6.60
2018-11-22T18:59:37.192Z,6.60
2018-11-22T19:00:15.909Z,6.60
2018-11-22T19:00:49.365Z,6.60
2018-11-22T19:01:22.929Z,6.60
2018-11-22T19:01:56.591Z,6.60
2018-11-22T19:02:30.170Z,6.60
2018-11-22T19:03:05.765Z,6.60
2018-11-22T19:03:39.988Z,6.60
2018-11-22T19:04:13.475Z,6.60
2018-11-22T19:04:47.557Z,6.60
2018-11-22T19:05:21.974Z,6.60
2018-11-22T19:05:55.840Z,6.60
2018-11-22T19:06:30.036Z,6.60
2018-11-22T19:07:05.517Z,6.60
2018-11-22T19:07:39.319Z,6.60
2018-11-22T19:08:12.893Z,6.60
2018-11-22T19:08:46.444Z,6.60
2018-11-22T19:09:20.233Z,6.60
2018-11-22T19:09:53.856Z,6.60
2018-11-22T19:10:29.718Z,6.60
2018-11-22T19:11:03.510Z,6.60
2018-11-22T19:11:37.661Z,6.60
2018-11-22T19:12:11.123Z,6.50
2018-11-22T19:12:45.493Z,6.60
2018-11-22T19:13:19.069Z,6.50
2018-11-22T19:13:53.580Z,6.50
2018-11-22T19:14:27.420Z,6.50
2018-11-22T19:15:01.047Z,6.50
2018-11-22T19:15:36.168Z,6.50
2018-11-22T19:16:09.659Z,6.50
2018-11-22T19:16:43.181Z,6.50
2018-11-22T19:17:16.619Z,6.50
2018-11-22T19:17:50.608Z,6.50
2018-11-22T19:18:24.084Z,6.50
2018-11-22T19:18:57.761Z,6.50
2018-11-22T19:19:31.196Z,6.50
2018-11-22T19:20:09.199Z,6.50
2018-11-22T19:20:40.216Z,6.50
2018-11-22T19:21:13.776Z,6.50
2018-11-22T19:21:47.572Z,6.50
2018-11-22T19:22:21.089Z,6.40
2018-11-22T19:22:55.167Z,6.50
2018-11-22T19:23:29.162Z,6.40
2018-11-22T19:24:02.686Z,6.40
2018-11-22T19:24:36.222Z,6.40
2018-11-22T19:25:10.046Z,6.40
2018-11-22T19:25:43.561Z,6.40
2018-11-22T19:26:17.095Z,6.40
2018-11-22T19:26:50.878Z,6.40
2018-11-22T19:27:24.367Z,6.40
2018-11-22T19:27:59.153Z,6.40
2018-11-22T19:28:32.662Z,6.40
2018-11-22T19:29:06.710Z,6.40
2018-11-22T19:29:40.241Z,6.40
2018-11-22T19:30:17.104Z,6.40
2018-11-22T19:30:51.233Z,6.40
2018-11-22T19:31:25.673Z,6.40
2018-11-22T19:32:00.589Z,6.30
2018-11-22T19:32:34.080Z,6.30
2018-11-22T19:33:09.403Z,6.30
2018-11-22T19:33:42.900Z,6.30
2018-11-22T19:34:16.387Z,6.30
2018-11-22T19:34:49.925Z,6.30
2018-11-22T19:35:26.953Z,6.30
2018-11-22T19:36:00.889Z,6.30
2018-11-22T19:36:34.862Z,6.30
2018-11-22T19:37:08.007Z,6.30
2018-11-22T19:37:41.968Z,6.30
2018-11-22T19:38:15.501Z,6.30
2018-11-22T19:38:49.115Z,6.30
2018-11-22T19:39:22.615Z,6.30
2018-11-22T19:39:56.094Z,6.30
2018-11-22T19:40:31.222Z,6.30
2018-11-22T19:41:05.309Z,6.30
2018-11-22T19:41:38.808Z,6.20
2018-11-22T19:42:12.321Z,6.20
2018-11-22T19:42:47.339Z,6.20
2018-11-22T19:43:22.034Z,6.20
2018-11-22T19:43:57.022Z,6.20
2018-11-22T19:44:32.012Z,6.20
2018-11-22T19:45:06.601Z,6.20
2018-11-22T19:45:42.783Z,6.20
2018-11-22T19:46:18.401Z,6.20
2018-11-22T19:46:52.198Z,6.20
2018-11-22T19:47:25.887Z,6.20
2018-11-22T19:47:59.877Z,6.20
2018-11-22T19:48:33.739Z,6.10